Ana Sayfa
METAR-TAF:

METAR-TAF

Havaalanları :

Grosse Ile Municipal Airport

Detroit / Grosse Ile, Michigan, Amerika Birleşik Devletleri

Enlem: 42-05-55N, Boylam: 083-09-40W, yükseklik: 180 m

Güncel hava durumu gözlemi

Rapor saat 02:15 UTC de 22 dakika önce yapıldı.
Rüzgar kuzeybatıdan 4 kt
Sıcaklık -8°C
Nem 73%
Basınç 1027 hPa
Görüş mesafesi: 16.1 km
Açık gökyüzü

METAR: KONZ 200215Z AUTO 31004KT 10SM CLR M08/M12 A3034 RMK AO2 T10791120

Saat: 21:37 (02:37 UTC)


TAF: eksik

4.000'den fazla havaalanı için hava durumu gözlemleri ve tahminleri (METAR ve TAF raporları).

Kullanılabilir istasyonlar harita üzerinde sarı ve kırmızı noktalarla gösterilir.

İstasyonun adını görmek için fareyi noktanın üzerinde gezdirin.

Sonrasında hava gözlem ve tahminlerini görmek için tıklayın.

Haritayı değiştirmek için: yaklaştırmak için siyah artı işaretli yeşil düğmeye ve uzaklaştırmak için de eksi işaretli düğmeye hızla tıklayın; bitişik haritalar için yeşil okları kullanın.


METAR-TAF: